Date,TemperatureHighF,TemperatureAvgF,TemperatureLowF,DewpointHighF,DewpointAvgF,DewpointLowF,HumidityHigh,HumidityAvg,HumidityLow,PressureMaxIn,PressureMinIn,WindSpeedMaxMPH,WindSpeedAvgMPH,GustSpeedMaxMPH,PrecipitationSumIn
2013-1-31,49.0,48.6,48.2,31.2,31.1,30.7,51,51,50,30.23,30.22,2,0,2,0.00
2013-2-1,68.9,53.3,41.4,37.3,33.5,29.7,70,49,26,30.37,30.23,6,1,6,0.00
2013-2-2,71.3,55.2,42.3,47.0,39.4,33.5,74,57,34,30.31,30.14,6,1,6,0.00
2013-2-3,70.9,56.3,43.0,50.6,42.0,34.3,80,60,40,30.19,30.05,8,1,8,0.00
2013-2-4,72.4,55.7,43.0,45.9,39.4,36.2,80,57,32,30.15,30.04,6,1,6,0.00
2013-2-5,74.7,59.2,44.1,53.0,45.9,37.0,78,63,44,30.11,29.99,8,1,8,0.00
2013-2-6,76.9,66.9,58.7,62.1,57.4,50.7,82,72,58,30.12,30.03,4,0,4,0.00
2013-2-7,81.4,71.4,61.7,64.0,60.7,57.5,86,70,53,30.09,29.87,12,2,12,0.00
2013-2-8,79.6,70.1,61.6,63.4,58.2,53.2,84,67,46,30.09,29.86,9,2,9,0.00
2013-2-9,72.9,62.6,55.1,57.4,53.4,50.0,84,73,55,30.22,30.07,7,2,7,0.00
2013-2-10,77.0,65.4,55.1,59.7,55.2,49.7,84,71,53,30.28,30.17,9,2,9,0.00
2013-2-11,82.8,70.1,58.3,63.5,59.2,53.8,85,70,49,30.22,30.07,11,2,11,0.00
2013-2-12,85.0,72.9,62.5,67.6,62.4,58.1,88,71,49,30.11,29.92,10,2,10,0.00
2013-2-13,71.3,68.9,64.3,65.1,63.4,59.5,85,83,77,29.96,29.91,6,2,6,0.34
2013-2-14,67.5,63.1,57.6,61.8,58.4,53.9,90,85,74,30.05,29.92,5,1,5,0.27
2013-2-15,71.3,59.4,53.8,59.2,53.3,49.8,89,81,62,30.09,29.95,5,1,5,0.02
2013-2-16,69.1,58.5,50.4,51.9,44.9,28.2,87,64,33,30.03,29.89,14,2,14,0.00
2013-2-17,41.8,40.0,38.3,26.2,25.1,24.3,61,55,51,30.35,30.32,0,0,0,0.00
2013-2-18,67.3,50.8,34.7,44.6,36.5,26.3,72,59,42,30.38,30.22,9,1,9,0.00
2013-2-19,79.6,63.1,47.9,56.4,49.7,41.7,82,64,42,30.23,30.05,12,2,12,0.00
2013-2-20,75.4,64.4,59.0,59.0,53.9,50.8,82,69,54,30.14,30.02,7,1,7,0.00
2013-2-21,82.1,68.7,57.6,64.6,58.2,50.2,82,70,49,30.12,30.00,6,1,6,0.00
2013-2-22,87.1,72.9,62.3,68.5,64.2,58.2,91,76,47,30.09,29.99,8,2,8,0.00
2013-2-23,86.9,76.0,69.5,69.2,65.8,61.3,88,72,48,30.01,29.86,12,3,12,0.00
2013-2-24,76.0,70.1,65.2,71.2,65.8,61.8,90,86,81,29.97,29.86,5,1,5,0.32
2013-2-25,84.6,72.3,63.5,71.8,65.3,60.7,93,80,54,29.94,29.76,10,1,10,0.48
2013-2-26,75.6,70.5,65.5,70.6,66.3,59.9,91,87,77,29.86,29.73,10,2,10,0.47
2013-2-27,76.1,66.6,57.6,61.0,55.9,47.9,86,70,49,29.97,29.86,7,2,7,0.00
2013-2-28,74.7,61.8,51.1,53.6,48.2,44.6,82,63,39,29.99,29.86,11,2,11,0.00
2013-3-1,67.0,57.4,50.4,45.6,41.0,34.1,75,56,36,30.00,29.89,8,2,8,0.00
2013-3-2,61.0,52.5,44.6,38.5,33.9,27.9,63,50,29,30.03,29.92,12,2,12,0.00
2013-3-3,55.4,46.4,39.2,33.8,30.4,28.2,67,54,41,30.16,29.99,14,2,14,0.00
2013-3-4,65.2,50.1,35.6,35.9,31.2,27.0,76,51,25,30.23,30.11,6,1,6,0.00
2013-3-5,77.4,59.6,43.9,54.2,42.6,34.6,78,56,32,30.18,29.99,10,2,10,0.00
2013-3-6,68.8,61.5,53.5,58.8,45.5,29.5,83,59,26,30.08,29.90,13,4,13,0.00
2013-3-7,68.0,54.1,41.6,43.8,37.0,29.4,75,53,39,30.22,30.11,6,1,6,0.00
2013-3-8,74.5,58.2,44.5,47.6,42.3,38.3,80,59,28,30.22,30.11,6,1,7,0.00
2013-3-9,74.3,61.8,47.7,52.5,47.9,41.9,82,62,42,30.23,30.14,7,1,8,0.00
2013-3-10,76.7,64.5,54.0,57.2,52.9,48.6,85,68,45,30.18,30.09,12,2,12,0.00
2013-3-11,79.9,66.9,55.3,59.6,55.5,49.1,84,68,48,30.12,29.92,8,2,8,0.00
2013-3-12,71.6,66.8,59.0,66.3,60.9,54.9,90,82,71,30.01,29.86,9,3,9,0.19
2013-3-13,75.8,65.2,53.8,55.2,43.9,37.1,87,50,28,30.16,30.01,8,1,8,0.00
2013-3-14,67.5,55.2,46.8,42.1,36.3,28.4,67,51,26,30.26,30.14,7,2,7,0.00
2013-3-15,72.9,56.2,41.8,43.1,38.1,32.5,79,55,29,30.29,30.13,6,1,6,0.00
2013-3-16,81.4,62.9,47.5,49.3,43.3,39.7,78,52,28,30.18,30.03,9,1,9,0.00
2013-3-17,78.8,65.3,50.0,56.5,49.4,40.1,78,58,42,30.14,29.99,10,2,10,0.00
2013-3-18,80.1,70.9,63.5,64.4,60.2,55.9,81,69,57,30.07,29.89,9,3,9,0.02
2013-3-19,87.3,73.3,64.6,64.0,60.9,58.0,87,67,41,30.02,29.87,7,1,7,0.00
2013-3-20,76.7,68.0,59.8,67.4,61.1,55.7,87,79,67,29.98,29.78,8,1,8,0.89
2013-3-21,73.1,60.0,50.0,56.1,44.7,34.1,88,61,29,29.96,29.86,7,1,7,0.00
2013-3-22,81.0,64.5,49.0,58.3,51.4,40.0,82,64,40,29.99,29.89,8,1,8,0.04
2013-3-23,85.9,72.0,63.5,74.3,65.1,58.2,90,79,62,29.98,29.75,9,2,9,0.25
2013-3-24,83.2,72.5,67.1,72.2,67.2,62.6,90,84,66,29.85,29.61,14,3,14,0.68
2013-3-25,74.5,66.5,56.3,65.1,48.2,35.4,88,56,26,30.02,29.69,8,2,9,0.00
2013-3-26,64.1,55.3,47.9,38.8,30.8,25.6,54,40,25,30.23,30.01,11,2,11,0.00
2013-3-27,66.6,53.0,42.7,37.7,32.7,28.6,64,48,30,30.30,30.19,7,1,7,0.00
2013-3-28,72.4,56.3,41.9,41.2,37.0,31.2,76,52,23,30.29,30.17,10,1,10,0.00
2013-3-29,76.0,59.9,45.7,47.9,39.9,34.3,78,52,24,30.32,30.18,8,1,8,0.00
2013-3-30,81.2,64.7,48.6,53.7,47.0,38.6,78,55,32,30.26,30.10,9,2,9,0.00
2013-3-31,85.1,71.8,61.9,56.8,52.6,49.8,71,52,35,30.17,29.98,13,2,13,0.00
2013-4-1,86.4,76.9,65.3,63.8,59.1,50.8,70,55,41,30.01,29.90,10,2,10,0.00
2013-4-2,84.1,71.6,62.5,61.4,56.1,46.7,85,61,33,30.09,29.98,8,1,8,0.00
2013-4-3,84.1,71.2,61.2,66.8,60.4,53.8,85,70,49,30.09,29.95,10,2,10,0.36
2013-4-4,75.8,70.5,67.1,69.1,65.6,62.6,90,85,77,30.02,29.83,13,2,13,0.12
2013-4-5,79.2,68.5,59.0,68.1,61.8,53.9,88,80,61,29.99,29.79,8,2,8,0.04
2013-4-6,76.5,65.2,55.6,59.9,55.7,50.5,86,73,54,30.14,29.97,9,2,9,0.00
2013-4-7,69.5,65.0,61.6,58.2,57.3,56.2,83,76,67,30.12,30.06,3,0,3,0.00
2013-4-8,85.1,71.2,59.4,63.6,59.6,54.5,86,69,47,30.14,30.05,9,2,9,0.00
2013-4-9,84.8,72.7,63.4,67.0,60.6,55.5,88,68,46,30.17,30.07,10,2,10,0.00
2013-4-10,86.9,73.3,61.6,68.3,63.4,56.7,88,72,52,30.13,29.99,8,2,8,0.00
2013-4-11,90.4,78.2,70.9,72.3,69.4,67.1,88,76,53,30.00,29.82,10,3,10,0.01
2013-4-12,86.2,78.5,72.7,73.4,70.1,67.2,89,76,60,29.90,29.79,13,3,13,0.00
2013-4-13,85.0,75.7,67.3,70.4,65.7,56.7,88,72,54,29.99,29.86,5,1,5,0.00
2013-4-14,87.1,74.0,66.6,73.8,66.1,58.4,90,77,64,29.99,29.80,11,2,11,2.35
2013-4-15,90.2,74.6,65.5,70.4,64.7,61.8,91,74,48,30.08,29.89,8,1,8,0.00
2013-4-16,85.0,75.7,69.1,71.1,66.8,63.1,90,75,59,30.16,30.05,9,2,9,0.00
2013-4-17,82.6,73.9,67.7,69.4,65.5,63.4,90,76,57,30.15,30.05,10,2,10,0.00
2013-4-18,90.4,77.2,66.2,69.8,66.5,62.6,89,72,47,30.07,29.95,8,2,8,0.00
2013-4-19,92.3,79.0,72.4,75.0,70.0,67.9,89,75,48,30.01,29.88,11,3,11,0.15
2013-4-20,73.4,68.0,61.2,68.8,61.7,55.4,88,80,72,30.16,29.95,6,2,6,0.02
2013-4-21,81.5,69.9,61.9,70.8,64.5,55.6,91,83,66,30.14,30.01,7,2,7,0.74
2013-4-22,78.1,69.5,65.7,69.6,65.4,62.2,91,87,70,30.08,29.99,7,2,7,0.20
2013-4-23,80.5,70.5,62.8,65.7,61.3,58.1,92,74,50,30.12,30.01,7,2,7,0.00
2013-4-24,86.8,71.9,58.7,66.0,60.7,54.6,88,70,45,30.14,30.05,8,1,8,0.00
2013-4-25,88.9,74.7,62.3,66.7,61.6,57.3,86,66,42,30.20,30.09,7,1,7,0.00
2013-4-26,87.7,75.5,65.0,66.7,63.6,60.0,85,68,45,30.24,30.14,8,1,8,0.00
2013-4-27,84.2,74.6,66.2,68.5,64.0,61.7,88,71,49,30.22,30.11,6,2,11,0.00
2013-4-28,82.6,73.6,65.5,69.0,63.8,61.0,88,72,52,30.14,29.99,10,2,10,0.00
2013-4-29,89.5,76.2,66.6,68.7,64.1,60.7,86,68,43,30.02,29.89,9,2,9,0.68
2013-4-30,88.7,79.5,68.8,70.3,66.6,63.7,88,67,48,30.01,29.90,10,2,10,0.41
2013-5-1,77.8,72.3,68.2,70.5,67.6,65.3,91,85,74,30.02,29.93,6,1,6,0.08
2013-5-2,76.0,70.2,66.2,70.1,66.8,63.5,92,89,80,29.95,29.81,8,2,8,2.55
2013-5-3,79.0,71.4,67.5,70.5,67.0,65.1,92,86,71,29.83,29.66,12,2,12,0.83
2013-5-4,85.9,74.2,68.0,73.0,68.1,65.3,91,82,62,29.77,29.65,12,1,12,0.07
2013-5-5,82.6,72.0,63.9,66.1,55.5,48.5,87,59,33,29.92,29.73,8,2,8,0.00
2013-5-6,81.7,71.0,63.5,59.1,55.0,49.1,78,58,39,29.99,29.87,9,2,9,0.00
2013-5-7,82.3,69.7,57.2,58.5,54.8,49.9,80,61,42,30.04,29.94,10,2,10,0.00
2013-5-8,86.8,73.3,60.8,63.0,58.7,55.4,83,63,41,30.12,30.01,8,1,8,0.00
2013-5-9,87.5,74.0,61.4,65.5,60.1,55.5,84,64,39,30.14,30.06,7,1,7,0.00
2013-5-10,91.8,77.4,65.5,69.8,65.8,60.4,86,69,45,30.13,29.98,7,2,7,0.01
2013-5-11,92.7,78.9,69.3,72.7,68.0,63.9,87,71,48,30.04,29.94,8,2,8,0.00
2013-5-12,92.9,79.9,69.1,70.8,65.8,62.7,83,64,44,30.02,29.91,8,2,8,0.00
2013-5-13,88.2,75.2,65.9,64.0,59.7,50.6,80,61,36,30.13,29.97,6,1,6,0.00
2013-5-14,86.4,71.2,57.8,57.1,53.4,44.9,81,56,31,30.20,30.12,7,1,7,0.00
2013-5-15,88.0,73.8,60.8,61.7,57.3,53.7,82,59,37,30.21,30.09,9,2,9,0.00
2013-5-16,70.6,69.1,67.7,59.1,58.6,58.1,74,69,65,30.10,30.05,3,1,3,0.00
2013-5-18,92.3,83.4,76.1,69.7,68.1,65.0,78,61,43,30.08,30.00,8,3,8,0.00
2013-5-19,90.7,78.4,72.2,73.0,69.3,66.6,88,74,54,30.08,29.99,9,2,9,0.00
2013-5-20,90.7,77.0,71.3,72.8,68.7,66.1,89,77,48,30.08,29.97,6,1,7,0.27
2013-5-21,82.3,73.7,69.5,73.8,68.7,66.1,90,85,72,30.04,29.94,6,1,6,0.14
2013-5-22,87.5,74.6,68.0,73.8,69.2,64.6,91,84,58,29.97,29.90,10,1,10,0.27
2013-5-23,92.9,76.2,68.4,75.1,69.2,65.3,91,80,53,29.99,29.90,7,1,7,0.11
2013-5-24,96.7,80.5,68.8,73.6,67.2,63.2,91,67,35,30.09,29.95,9,1,9,0.01
2013-5-25,86.2,76.3,67.9,68.1,62.9,56.9,86,65,42,30.19,30.06,9,2,9,0.00
2013-5-26,87.1,73.5,61.6,62.6,58.8,55.5,84,62,37,30.22,30.14,9,1,9,0.00
2013-5-27,87.8,75.6,65.7,65.3,62.2,58.3,85,65,44,30.18,30.10,10,2,10,0.00
2013-5-28,89.1,77.6,68.0,71.1,66.8,61.6,84,70,51,30.15,30.07,12,2,12,0.00
2013-5-29,87.1,78.0,71.1,74.3,70.3,66.5,89,78,60,30.13,30.06,9,2,9,0.04
2013-5-30,86.2,77.1,71.5,74.6,70.9,67.7,90,82,65,30.12,30.04,11,2,11,0.43
2013-5-31,88.9,77.3,70.0,74.0,69.7,66.4,90,78,56,30.12,30.03,10,3,10,0.05
2013-6-1,86.0,77.8,71.8,75.7,71.5,67.8,90,81,69,30.07,29.97,11,2,11,0.35
2013-6-2,93.1,78.4,72.2,77.4,72.7,68.8,91,83,59,30.01,29.87,9,1,9,1.12
2013-6-3,91.8,78.7,72.2,77.1,72.5,68.8,90,82,59,29.99,29.86,10,1,10,0.07
2013-6-4,89.8,77.9,72.2,75.4,71.3,68.4,90,81,58,30.04,29.92,12,1,12,0.47
2013-6-5,85.0,74.3,71.5,77.4,70.4,68.0,90,88,74,30.02,29.91,8,1,8,2.66
2013-6-6,78.8,74.4,72.2,74.9,70.5,68.4,89,88,79,29.91,29.63,13,3,13,2.21
2013-6-7,91.4,80.5,72.9,76.5,72.3,68.7,89,77,61,29.94,29.73,10,2,10,0.00
2013-6-8,90.4,77.4,72.0,78.1,71.4,68.0,89,82,62,30.09,29.94,7,1,12,1.02
2013-6-9,92.0,79.2,70.0,78.3,71.6,66.6,89,78,61,30.11,30.01,7,2,7,0.00
2013-6-10,95.0,80.0,72.5,77.0,72.4,68.8,89,79,52,30.10,30.00,7,1,7,0.11
2013-6-11,91.8,76.9,72.0,78.1,71.6,66.4,89,84,61,30.10,30.00,9,1,9,2.13
2013-6-12,71.8,71.3,70.9,68.4,67.8,67.5,89,89,88,30.06,30.03,1,0,1,0.00
2013-6-13,93.8,84.4,79.6,73.1,70.9,69.9,75,65,49,29.92,29.87,8,1,8,0.00
2013-6-14,96.5,83.7,75.6,74.6,71.2,67.3,85,68,44,29.92,29.82,8,2,8,0.00
2013-6-15,89.1,81.4,77.2,76.4,72.5,69.7,85,75,61,30.07,29.90,10,2,10,0.00
2013-6-16,89.3,80.7,77.4,77.4,73.3,70.1,85,78,66,30.09,30.01,8,2,8,0.32
2013-6-17,90.0,80.8,73.8,80.2,74.5,69.2,89,82,66,30.08,29.96,10,1,10,1.34
2013-6-18,96.7,80.5,71.5,78.7,73.0,67.7,89,79,53,30.07,29.93,17,1,17,2.45
2013-6-19,100.6,82.3,72.7,79.1,73.4,68.9,89,76,47,30.03,29.93,10,2,10,0.10
2013-6-20,91.8,80.0,73.8,77.5,71.9,68.0,89,77,54,30.09,29.99,8,1,8,0.29
2013-6-21,92.9,76.8,72.2,76.7,70.8,68.3,89,83,56,30.11,30.03,10,1,10,0.65
2013-6-22,90.4,79.0,71.1,77.1,71.5,67.1,89,79,57,30.11,30.04,6,1,6,0.00
2013-6-23,87.8,79.1,71.3,76.7,72.3,67.5,89,80,66,30.14,30.06,8,1,8,0.00
2013-6-24,92.7,81.0,72.4,75.8,72.1,68.6,89,76,54,30.18,30.07,7,1,7,0.00
2013-6-25,93.6,81.7,72.4,76.4,71.9,68.3,89,73,52,30.15,30.03,9,1,9,0.00
2013-6-26,94.3,81.3,75.1,76.1,72.2,68.3,88,75,54,30.07,29.99,10,2,10,0.00
2013-6-27,97.2,82.0,72.0,75.0,71.5,67.4,88,72,48,30.03,29.91,7,1,7,0.00
2013-6-28,96.8,80.9,74.2,77.0,72.6,69.4,89,77,49,29.95,29.82,10,2,10,0.14
2013-6-29,93.2,81.2,73.8,77.7,73.0,69.5,89,77,53,29.86,29.77,13,2,13,0.28
2013-6-30,91.3,77.3,73.1,76.7,71.9,69.7,89,84,61,29.88,29.80,14,2,14,1.58
2013-7-1,86.9,76.8,73.1,75.9,71.5,69.1,89,84,68,30.02,29.85,13,3,13,0.37
2013-7-2,84.6,75.7,72.5,78.3,71.7,68.6,89,87,81,30.09,29.96,8,1,8,0.34
2013-7-3,87.7,76.9,72.0,78.9,72.4,68.2,89,86,73,30.13,30.04,10,1,10,0.60
2013-7-4,91.4,78.8,72.0,77.4,71.8,67.5,89,80,60,30.14,30.06,12,2,12,0.11
2013-7-5,93.1,80.6,72.9,77.8,72.5,68.9,89,77,55,30.15,30.05,11,2,11,0.06
2013-7-6,94.7,82.2,73.1,75.6,72.6,69.5,89,74,53,30.12,30.04,11,2,11,0.00
2013-7-7,94.0,82.5,74.3,76.4,72.6,69.8,88,73,50,30.12,30.03,10,2,10,0.00
2013-7-8,94.0,82.6,74.5,75.7,72.7,70.5,89,73,53,30.15,30.06,9,2,9,0.00
2013-7-9,93.1,81.5,73.3,75.2,71.2,68.6,89,72,50,30.15,30.05,10,1,10,0.00
2013-7-10,92.0,80.1,73.1,75.6,71.7,69.0,88,77,53,30.08,29.95,6,1,10,0.00
2013-7-11,79.7,78.4,77.2,70.6,70.1,69.8,80,76,72,29.94,29.92,3,1,3,0.00
2013-7-12,91.3,80.1,73.8,75.3,72.4,69.4,87,78,58,29.94,29.87,8,1,8,0.01
2013-7-13,93.1,79.4,72.9,76.7,71.8,68.5,89,78,55,29.99,29.88,9,1,9,0.08
2013-7-14,89.5,77.9,72.2,76.6,71.7,68.1,89,81,63,30.09,29.96,8,2,8,0.01
2013-7-15,87.1,78.2,70.7,76.4,71.4,67.0,89,80,64,30.12,30.01,9,2,9,0.09
2013-7-16,88.6,79.3,73.8,74.9,72.3,70.1,89,80,59,30.14,30.09,9,2,9,0.16
2013-7-17,88.9,79.6,74.2,76.0,72.7,70.4,89,80,59,30.15,30.06,9,2,9,0.16
2013-7-18,85.5,77.8,72.5,76.5,71.9,68.8,89,82,67,30.11,30.03,7,1,7,0.21
2013-7-19,92.7,78.5,72.4,77.1,71.4,68.1,89,80,58,30.12,30.01,11,1,11,1.77
2013-7-20,93.4,78.1,72.5,79.0,72.2,68.6,89,83,56,30.09,29.99,9,1,9,0.10
2013-7-21,96.1,79.8,72.4,79.3,72.7,68.3,88,80,53,30.10,29.99,5,1,5,0.06
2013-7-22,95.0,80.1,73.6,77.7,73.0,69.8,88,80,54,30.10,30.03,8,1,8,0.08
2013-7-23,85.1,77.1,73.1,77.1,72.1,69.3,88,85,75,30.07,29.92,11,1,11,0.14
2013-7-24,87.8,79.5,74.2,77.6,73.7,70.4,89,83,70,29.97,29.85,11,2,11,0.15
2013-7-25,88.2,80.5,76.0,77.5,73.7,71.2,88,80,67,29.95,29.83,9,2,9,0.00
2013-7-26,93.6,81.9,74.2,77.2,73.9,70.4,89,78,55,29.99,29.92,6,1,6,0.01
2013-7-27,94.7,80.7,74.9,78.0,73.7,71.0,88,80,56,29.98,29.87,6,1,6,0.09
2013-7-28,95.9,78.0,72.4,77.6,71.7,67.6,89,82,51,30.04,29.91,8,1,8,3.00
2013-7-29,91.3,78.9,70.9,76.5,72.2,67.1,88,81,60,30.13,30.00,10,1,10,0.10
2013-7-30,94.9,82.6,73.8,77.7,73.4,70.0,88,75,53,30.16,30.06,6,1,6,0.00
2013-7-31,90.2,81.7,74.9,77.7,73.8,70.4,87,77,62,30.12,29.98,9,1,9,0.00
2013-8-1,94.9,79.9,73.1,76.8,72.3,69.3,88,79,49,30.06,29.93,9,1,9,0.35
2013-8-2,92.2,81.2,72.9,76.6,72.4,68.9,88,76,55,30.01,29.92,7,1,7,0.00
2013-8-3,94.7,80.6,74.7,77.7,73.2,70.7,88,79,53,30.07,29.97,8,1,8,0.42
2013-8-4,92.2,80.8,73.8,78.8,73.8,69.8,88,80,61,30.06,29.95,8,1,8,0.01
2013-8-5,94.0,81.4,76.0,79.6,74.5,71.8,87,80,61,29.99,29.88,7,1,7,0.02
2013-8-6,88.4,77.6,73.6,77.9,72.1,69.6,87,83,68,29.95,29.87,3,1,3,0.01
2013-8-7,88.7,83.9,79.2,76.4,74.7,73.3,83,74,67,29.95,29.89,8,2,8,0.00
2013-8-8,94.0,83.2,75.2,79.0,74.1,71.2,87,75,55,30.03,29.93,8,2,8,0.00
2013-8-9,95.4,83.2,74.7,77.0,73.0,70.7,87,73,49,30.06,29.96,8,2,8,0.00
2013-8-10,95.4,83.8,73.8,78.0,73.0,69.0,87,71,51,30.11,30.02,6,2,6,0.08
2013-8-11,94.7,83.3,74.2,77.5,72.8,70.1,87,72,49,30.14,30.04,8,1,8,0.00
2013-8-12,94.1,83.3,74.2,76.1,72.4,69.7,87,71,51,30.11,29.98,6,1,6,0.00
2013-8-13,100.1,85.5,74.5,76.0,72.0,68.4,87,67,39,30.03,29.89,6,1,6,0.00
2013-8-14,95.4,81.6,75.4,78.5,73.4,71.3,87,77,52,29.99,29.86,13,1,13,0.23
2013-8-15,97.2,85.2,74.5,76.5,72.3,70.3,87,68,45,30.02,29.89,10,2,10,0.00
2013-8-16,95.0,82.1,76.9,77.7,73.5,70.8,85,76,54,30.04,29.93,12,1,12,0.02
2013-8-17,93.1,82.1,76.0,79.8,74.5,71.3,87,79,60,30.07,29.96,9,1,9,0.07
2013-8-18,94.0,82.9,75.6,76.8,74.0,71.2,87,75,56,30.08,29.99,9,2,9,0.00
2013-8-19,90.0,79.8,74.9,78.6,73.8,70.8,87,82,64,30.07,29.95,8,1,8,0.19
2013-8-20,94.9,82.4,74.2,77.9,73.2,69.8,87,75,52,30.08,29.98,8,2,8,0.00
2013-8-21,90.5,79.5,75.4,78.3,73.6,70.8,87,83,65,30.10,30.02,13,1,13,0.51
2013-8-22,88.2,77.5,75.2,79.7,72.8,70.8,87,86,76,30.07,29.97,8,1,8,0.21
2013-8-23,87.8,78.3,74.0,78.2,73.0,69.6,88,84,71,30.01,29.94,7,1,7,0.45
2013-8-24,89.3,77.5,73.3,78.3,72.3,69.2,88,84,67,30.10,29.98,8,1,8,0.11
2013-8-25,85.7,78.0,73.3,77.1,72.6,69.2,88,84,72,30.14,30.06,8,1,8,0.12
2013-8-26,88.4,79.4,72.4,76.5,72.5,68.3,88,80,63,30.12,29.99,9,1,9,0.01
2013-8-27,88.7,79.7,72.4,74.1,69.6,65.7,89,73,50,30.05,29.97,8,1,8,0.00
2013-8-28,89.8,79.5,70.2,72.9,68.3,65.8,89,70,50,30.04,29.95,7,1,7,0.00
2013-8-29,90.9,80.8,72.0,73.4,70.0,67.4,88,71,51,30.01,29.89,5,1,5,0.00
2013-8-30,93.1,81.9,73.6,76.4,72.2,69.2,87,73,54,29.96,29.85,10,1,10,0.00
2013-8-31,94.5,81.5,73.8,76.8,72.0,68.8,88,75,51,29.95,29.84,8,1,8,0.25
2013-9-1,95.4,80.1,71.8,76.5,71.8,68.0,88,77,52,29.98,29.86,13,1,13,0.30
2013-9-2,92.7,80.3,72.0,76.2,71.7,68.1,88,76,55,29.99,29.89,10,1,10,0.00
2013-9-3,94.5,82.3,72.9,75.8,72.3,68.9,88,73,50,29.99,29.88,6,1,6,0.00
2013-9-5,89.3,88.8,88.6,77.0,76.9,76.7,68,68,67,30.03,30.02,2,1,2,0.00
2013-9-9,80.5,80.4,80.3,70.7,70.6,70.5,72,72,72,29.99,29.99,1,1,5,0.00
2013-9-10,89.1,86.4,79.4,72.1,70.3,68.1,73,59,50,30.07,30.02,6,3,13,0.00
2013-9-11,85.7,85.7,85.7,71.7,71.7,71.7,63,63,63,30.05,30.05,3,3,6,0.00
2013-9-12,86.2,85.6,84.8,75.4,75.0,74.8,72,71,70,29.98,29.90,2,1,7,0.00
2013-9-16,90.4,90.4,90.4,70.3,70.1,69.8,52,52,51,29.98,29.98,4,3,9,0.00
2013-9-19,85.7,74.7,71.8,73.9,69.2,67.1,87,83,65,30.02,29.98,4,0,5,0.04
2013-9-20,86.6,76.7,68.9,72.1,68.2,65.1,88,76,57,30.01,29.89,8,1,8,0.01
2013-9-21,90.9,78.3,69.3,72.3,68.7,65.1,88,73,54,29.93,29.74,5,1,5,0.00
2013-9-22,91.3,78.3,73.1,75.7,71.1,67.7,88,79,58,29.83,29.71,10,1,10,0.31
2013-9-23,83.9,75.7,72.9,77.1,71.5,68.9,88,87,78,29.94,29.81,5,1,5,1.10
2013-9-24,86.4,76.3,72.5,78.1,71.4,68.5,88,85,73,29.94,29.81,9,1,9,0.34
2013-9-25,82.1,76.4,72.4,73.6,70.8,68.0,87,83,73,29.82,29.74,8,2,8,0.02
2013-9-26,90.4,80.0,73.4,77.0,71.4,65.7,88,76,46,29.85,29.73,8,2,8,0.00
2013-9-27,79.6,74.4,70.6,73.3,69.3,66.2,88,84,77,29.94,29.82,11,1,11,0.03
2013-9-28,81.9,74.9,70.6,74.2,69.3,66.8,88,83,66,30.00,29.89,8,1,8,0.16
2013-9-29,86.6,75.6,68.9,72.1,68.1,64.7,88,78,55,29.97,29.88,8,1,8,0.00
2013-9-30,87.7,76.0,68.4,72.6,68.2,64.4,88,78,49,30.00,29.89,6,1,6,0.00
2013-10-1,86.0,77.2,71.3,73.8,69.7,67.2,88,78,65,30.05,29.96,7,1,8,0.00
2013-10-2,85.3,76.3,69.5,71.7,67.9,65.2,87,76,62,30.04,29.97,6,1,6,0.00
2013-10-3,88.2,76.7,68.8,74.2,68.4,64.1,88,76,56,30.05,29.96,7,1,7,0.00
2013-10-4,89.1,77.2,70.0,73.8,69.3,65.6,89,77,55,30.06,29.96,7,1,7,0.00
2013-10-5,86.4,77.4,69.8,74.8,69.6,65.8,88,78,59,30.04,29.94,6,1,6,0.00
2013-10-6,90.4,77.6,70.9,74.8,70.8,66.9,89,80,57,29.96,29.83,10,1,10,1.22
2013-10-7,83.9,74.8,71.5,77.5,70.4,67.4,88,86,78,29.86,29.71,6,1,6,0.81
2013-10-8,86.4,76.9,72.4,76.2,71.4,68.1,87,83,71,29.92,29.74,8,2,8,0.14
2013-10-9,79.7,73.2,68.4,70.3,67.4,63.2,87,82,71,30.01,29.89,9,2,9,0.00
2013-10-10,83.9,72.9,64.8,70.0,65.0,60.8,88,77,56,30.04,29.94,5,1,5,0.00
2013-10-11,85.7,72.9,63.5,68.4,63.5,59.1,89,74,53,30.02,29.91,7,0,7,0.00
2013-10-12,69.3,67.8,67.1,62.6,62.2,61.7,84,82,79,29.97,29.94,0,0,0,0.00
2013-10-16,85.1,79.0,72.4,73.1,69.6,59.9,88,74,56,29.95,29.86,3,1,7,0.00
2013-10-17,86.6,76.1,69.8,73.1,68.7,62.6,88,79,59,29.96,29.86,4,0,7,0.00
2013-10-18,83.5,83.5,83.5,73.5,73.5,73.5,72,72,72,29.95,29.95,1,1,7,0.00
2013-10-21,79.2,79.0,78.8,73.8,73.7,73.6,84,84,83,29.91,29.90,4,2,7,0.00
2013-10-22,86.4,86.4,86.4,75.6,75.6,75.6,70,70,70,29.85,29.85,4,4,7,0.00
2013-10-27,75.4,72.6,67.7,58.0,55.3,51.4,56,55,53,30.07,30.05,2,1,7,0.00
2013-10-28,69.5,64.9,56.2,61.2,57.8,51.0,83,78,75,30.15,30.10,1,0,7,0.00
2013-10-29,70.6,69.7,68.8,63.4,63.2,63.1,82,80,78,30.19,30.18,0,0,7,0.00
2013-10-30,81.5,80.3,78.5,66.9,66.3,65.4,65,63,60,30.14,30.10,4,2,7,0.00
2013-11-1,86.8,86.7,86.6,70.2,69.8,69.5,58,58,57,29.86,29.84,5,4,10,0.00
2013-11-2,72.7,72.7,72.7,66.6,66.6,66.6,81,81,81,29.80,29.80,0,0,7,0.00
2013-11-3,74.5,68.6,62.5,62.1,53.1,47.9,81,59,40,30.09,29.99,7,2,7,0.00
2013-11-4,76.9,68.4,61.2,63.2,58.9,54.1,84,72,51,30.15,30.06,10,2,10,0.02
2013-11-5,79.9,72.0,66.8,67.3,65.0,61.7,88,79,60,30.15,30.07,11,2,11,0.11
2013-11-6,78.1,74.2,68.4,69.8,67.4,64.4,88,80,70,30.10,30.01,7,2,7,0.01
2013-11-7,79.2,72.3,66.6,70.3,66.5,62.7,88,82,70,30.03,29.93,4,1,4,0.00
2013-11-8,66.8,66.4,66.1,62.7,62.4,62.0,88,87,87,29.98,29.96,0,0,0,0.00
2013-11-9,78.3,69.3,62.1,65.1,60.7,57.3,87,75,59,30.16,30.08,8,2,9,0.00
2013-11-10,77.8,64.1,61.9,65.8,59.9,57.5,88,86,67,30.15,30.06,3,0,3,0.00
2013-11-11,79.6,70.1,63.4,68.1,63.0,59.8,88,79,62,30.14,30.05,5,1,6,0.00
2013-11-12,77.8,68.9,62.5,68.2,62.4,58.6,89,80,66,30.09,29.98,5,0,5,0.00
2013-11-13,66.8,62.1,55.8,59.3,52.5,49.1,79,71,61,30.29,30.05,12,3,12,0.00
2013-11-14,68.2,59.5,55.6,55.4,51.3,49.3,80,74,63,30.26,30.19,3,1,12,0.00
2013-11-21,76.5,73.4,70.6,70.3,68.0,66.3,87,83,79,30.17,30.11,5,2,12,0.02
2013-11-22,78.7,78.7,78.7,67.6,67.6,67.6,69,69,69,30.10,30.10,5,5,12,0.00
2013-11-23,69.3,67.7,65.3,65.3,58.6,53.6,88,73,60,30.15,30.02,2,1,12,0.00
2013-11-24,68.9,64.3,61.9,63.5,56.5,52.8,87,76,72,30.20,30.01,3,2,12,0.00
2013-11-25,70.9,67.9,66.2,60.0,58.1,57.5,78,71,63,30.15,30.06,6,2,12,0.00
2013-11-26,81.0,73.2,66.8,71.9,67.1,59.8,88,81,71,30.06,29.70,10,3,13,0.11
2013-11-27,73.8,63.2,45.4,69.0,55.6,37.4,87,77,61,30.18,29.66,10,3,14,0.34
2013-11-28,63.5,49.4,39.8,51.7,40.9,32.7,80,73,63,30.30,30.17,8,2,12,0.00
2013-11-29,69.5,58.8,50.4,60.1,51.7,45.5,87,78,66,30.33,30.26,8,2,12,0.00
2013-11-30,74.0,65.1,58.3,63.7,58.8,52.8,88,81,64,30.28,30.16,5,2,12,0.01
2013-12-1,73.4,65.8,61.9,65.9,61.0,58.2,88,85,75,30.16,29.99,4,1,12,0.00
2013-12-2,71.8,65.1,59.6,62.6,57.6,48.7,88,77,61,29.90,29.78,5,1,12,0.00
2013-12-3,75.6,65.3,55.6,62.3,57.6,51.5,88,77,61,29.96,29.86,7,1,12,0.00
2013-12-4,79.0,68.5,60.3,68.9,61.8,56.4,88,80,66,30.06,29.94,7,1,12,0.00
2013-12-5,81.5,70.0,61.6,68.5,63.2,57.7,88,80,64,30.15,30.05,6,1,12,0.00
2013-12-6,83.3,72.7,64.4,70.9,65.7,60.6,88,79,64,30.16,30.06,11,1,11,0.00
2013-12-7,81.4,71.9,64.6,68.7,64.2,60.7,88,77,57,30.21,30.11,5,1,5,0.00
2013-12-8,81.7,68.5,62.8,70.7,63.1,58.8,88,83,65,30.21,30.12,8,1,8,0.00
2013-12-9,82.8,72.3,64.1,71.1,64.8,60.0,88,78,61,30.17,30.06,8,1,8,0.00
2013-12-10,81.5,75.4,67.0,67.7,64.5,61.7,84,70,57,30.15,30.02,5,1,8,0.00
2013-12-11,79.6,75.8,67.5,68.3,66.0,60.9,81,72,65,30.22,30.12,3,1,8,0.00
2013-12-13,72.2,66.1,50.6,64.6,53.5,44.9,82,65,52,30.25,30.11,8,2,10,0.00
2013-12-20,79.0,72.0,65.7,63.9,60.8,58.6,81,68,58,30.15,30.07,5,1,8,0.00
2013-12-21,82.3,71.3,61.7,70.4,65.0,57.1,88,81,65,30.12,30.01,7,2,10,0.00
2013-12-22,82.8,73.1,65.9,71.7,66.2,62.2,88,80,64,30.12,30.04,7,2,9,0.00
2013-12-23,82.4,72.6,66.1,72.2,66.2,62.2,88,81,65,30.14,30.03,9,1,11,0.00
2013-12-24,72.4,63.2,52.9,68.0,53.4,35.9,87,72,38,30.23,30.05,6,2,10,0.15
2013-12-25,72.4,58.8,47.9,57.1,48.9,39.2,83,70,54,30.22,30.13,8,1,8,0.00
2013-12-26,73.1,63.3,57.2,63.5,57.3,52.7,88,81,71,30.19,30.07,7,2,7,0.00
2013-12-27,70.2,63.6,59.6,64.1,59.1,55.5,87,85,80,30.23,30.14,6,1,6,0.00
2013-12-28,74.7,69.1,64.4,69.4,64.9,60.6,88,86,82,30.19,29.98,8,2,8,0.29
2013-12-29,78.1,71.6,66.2,72.4,67.0,62.1,87,86,81,29.98,29.84,9,2,9,0.27
2013-12-30,67.9,62.3,58.1,62.2,56.8,52.4,88,82,68,30.17,29.95,5,1,5,0.00
2013-12-31,68.8,61.3,57.2,54.0,52.6,50.0,86,74,55,30.27,30.13,5,1,6,0.00
2014-1-1,65.2,61.7,58.9,60.8,57.3,53.6,87,85,79,30.23,30.02,5,1,5,0.06
2014-1-2,79.2,67.7,60.3,71.1,62.9,55.3,87,85,75,30.03,29.77,14,2,14,0.41